»·PEaware :: AAL480 KSAN-KPHX

AAL480 :: KSAN-KPHX

FLIGHT INFORMATION

Flight Status: Arrived
Operator:
American Airlines
More flights by this operator :: More flights under this callsign
Pilot: Daniel O. (11975)
Aircraft: AIRBUS A320
(A320)
More flights by this aircraft type
Origin: KSAN San Diego Intl-Lindbergh
United States
Destination: KPHX Phoenix Sky Harbor Intl
United States
More flights between these airports :: More routes between these airports
Route: ZZOOO2 IPL J18 BZA HOGGZ HYDRR1
File this flight plan on PilotEdge
Remarks:
Altitude:
(Current/Filed)
27,000ft
Speed:
(Current/Filed)
460kts
Departed: 12-Feb-20 11:17 PM
Arrived: 13-Feb-20 12:12 AM
Distance/Time
Traveled:
264nm/0:54
Distance/Time
To Go:
Arrived

Flight Plot

Page will automatically refresh every two minutes.

Flight plan parsing failed; only flown route is shown


Map Options




Map Legend


Flown Route
Filed Route
Departure Airport
Arrival Airport
Navaid (VOR, NDB)
Fix

Horizontal Profiles

Position Reports

Time Latitude Longitude Heading Altitude Ground
Speed
12-Feb-20 23:04 32.733909 -117.200489 259 26ft 0kts
12-Feb-20 23:05 32.733909 -117.200489 259 26ft 0kts
12-Feb-20 23:06 32.733909 -117.200489 259 26ft 0kts
12-Feb-20 23:07 32.733909 -117.200489 259 26ft 0kts
12-Feb-20 23:08 32.733909 -117.200489 259 26ft 0kts
12-Feb-20 23:09 32.733929 -117.200250 280 26ft 2kts
12-Feb-20 23:09 32.733627 -117.199827 344 25ft 2kts
12-Feb-20 23:11 32.733341 -117.199837 16 26ft 0kts
12-Feb-20 23:12 32.733341 -117.199837 16 26ft 0kts
12-Feb-20 23:12 32.734677 -117.198481 107 26ft 10kts
12-Feb-20 23:14 32.733225 -117.192635 105 25ft 18kts
12-Feb-20 23:14 32.731962 -117.187378 106 24ft 21kts
12-Feb-20 23:15 32.730242 -117.180257 106 22ft 23kts
12-Feb-20 23:17 32.731947 -117.183060 286 23ft 122kts
12-Feb-20 23:17 32.742801 -117.227384 287 2165ft 186kts
12-Feb-20 23:18 32.755091 -117.296279 255 4475ft 251kts
12-Feb-20 23:19 32.694828 -117.319762 142 7363ft 279kts
12-Feb-20 23:20 32.638115 -117.252754 123 10248ft 301kts
12-Feb-20 23:21 32.622249 -117.146128 94 11585ft 365kts
12-Feb-20 23:22 32.611029 -117.018520 94 13123ft 401kts
12-Feb-20 23:23 32.607819 -116.885288 74 15091ft 408kts
12-Feb-20 23:24 32.632317 -116.752356 80 16878ft 421kts
12-Feb-20 23:25 32.645980 -116.612132 80 18492ft 433kts
12-Feb-20 23:26 32.659877 -116.468763 80 19995ft 442kts
12-Feb-20 23:27 32.673941 -116.321785 81 21340ft 452kts
12-Feb-20 23:28 32.688110 -116.171951 81 22580ft 460kts
12-Feb-20 23:29 32.702323 -116.019292 81 23732ft 467kts
12-Feb-20 23:30 32.716600 -115.864865 81 24773ft 474kts
12-Feb-20 23:31 32.730927 -115.707755 81 25731ft 481kts
12-Feb-20 23:32 32.745186 -115.548934 81 26752ft 484kts
12-Feb-20 23:33 32.751570 -115.389481 85 27136ft 483kts
12-Feb-20 23:34 32.755503 -115.234441 86 27138ft 484kts
12-Feb-20 23:35 32.759042 -115.073983 86 27139ft 484kts
12-Feb-20 23:36 32.762306 -114.914124 86 27142ft 485kts
12-Feb-20 23:37 32.765408 -114.753460 86 27144ft 486kts
12-Feb-20 23:38 32.768311 -114.592884 86 27149ft 487kts
12-Feb-20 23:39 32.770548 -114.431752 86 27154ft 488kts
12-Feb-20 23:40 32.772493 -114.278812 87 27151ft 488kts
12-Feb-20 23:41 32.774370 -114.116065 87 27146ft 488kts
12-Feb-20 23:42 32.787346 -113.956471 80 27144ft 486kts
12-Feb-20 23:43 32.804785 -113.796787 80 27141ft 487kts
12-Feb-20 23:44 32.847523 -113.647508 48 27170ft 478kts
12-Feb-20 23:45 32.934386 -113.529833 44 26998ft 460kts
12-Feb-20 23:46 33.012968 -113.423853 44 24508ft 409kts
12-Feb-20 23:47 33.085517 -113.325714 44 21115ft 389kts
12-Feb-20 23:48 33.154708 -113.232068 44 18331ft 354kts
12-Feb-20 23:49 33.217148 -113.147424 44 16590ft 334kts
12-Feb-20 23:50 33.269231 -113.072851 61 15422ft 325kts
12-Feb-20 23:51 33.276966 -112.964197 86 13808ft 326kts
12-Feb-20 23:52 33.279634 -112.856588 86 12297ft 317kts
12-Feb-20 23:53 33.303076 -112.761192 63 11056ft 297kts
12-Feb-20 23:54 33.335520 -112.674818 63 10194ft 272kts
12-Feb-20 23:55 33.366363 -112.594218 63 8998ft 266kts
12-Feb-20 23:56 33.367961 -112.590029 63 8936ft 266kts
12-Feb-20 23:57 33.367961 -112.590029 63 8936ft 266kts
12-Feb-20 23:58 33.376152 -112.568556 63 8611ft 264kts
12-Feb-20 23:59 33.400723 -112.504021 64 8035ft 244kts
13-Feb-20 00:00 33.400723 -112.504021 64 8035ft 244kts
13-Feb-20 00:01 33.400723 -112.504021 64 8035ft 244kts
13-Feb-20 00:02 33.414530 -112.465544 66 7568ft 244kts
13-Feb-20 00:03 33.428671 -112.405839 89 6739ft 243kts
13-Feb-20 00:04 33.428553 -112.326802 90 5742ft 240kts
13-Feb-20 00:05 33.432383 -112.258825 77 4968ft 231kts
13-Feb-20 00:06 33.441179 -112.189958 88 4366ft 180kts
13-Feb-20 00:07 33.441070 -112.133643 90 3107ft 165kts
13-Feb-20 00:08 33.440974 -112.087397 90 2128ft 140kts
13-Feb-20 00:09 33.440923 -112.064614 90 1770ft 139kts
13-Feb-20 00:10 33.440861 -112.020003 90 1126ft 128kts
13-Feb-20 00:11 33.439966 -112.004185 136 1135ft 11kts
13-Feb-20 00:12 33.439029 -112.000739 89 1143ft 11kts
13-Feb-20 00:13 33.438770 -111.998930 190 1149ft 8kts
13-Feb-20 00:14 33.438296 -111.999192 206 1148ft 0kts
13-Feb-20 00:15 33.438296 -111.999192 206 1148ft 0kts

Navigation Log

Ident Type
Flight plan parsing failed, navigation log unavailable